createdAt,value
2018-09-14T00:01:17.396Z,11.37
2018-09-14T00:03:45.639Z,11.27
2018-09-14T00:06:13.869Z,14.13
2018-09-14T00:08:42.137Z,11.97
2018-09-14T00:11:10.391Z,13.20
2018-09-14T00:13:38.656Z,15.23
2018-09-14T00:16:06.868Z,10.80
2018-09-14T00:18:35.091Z,12.73
2018-09-14T00:21:03.323Z,7.83
2018-09-14T00:23:31.552Z,11.00
2018-09-14T00:25:59.834Z,16.53
2018-09-14T00:28:28.105Z,9.63
2018-09-14T00:30:56.344Z,7.67
2018-09-14T00:33:24.570Z,10.83
2018-09-14T00:35:52.780Z,11.77
2018-09-14T00:38:21.012Z,7.20
2018-09-14T00:40:49.212Z,9.50
2018-09-14T00:43:17.476Z,13.70
2018-09-14T00:45:45.700Z,8.57
2018-09-14T00:48:13.907Z,9.40
2018-09-14T00:50:42.119Z,11.43
2018-09-14T00:53:10.381Z,7.77
2018-09-14T00:55:38.596Z,9.53
2018-09-14T00:58:06.825Z,12.53
2018-09-14T01:00:35.056Z,13.70
2018-09-14T01:03:03.321Z,9.80
2018-09-14T01:05:31.583Z,10.40
2018-09-14T01:07:59.827Z,9.87
2018-09-14T01:10:28.051Z,13.03
2018-09-14T01:12:56.304Z,10.23
2018-09-14T01:15:24.508Z,15.57
2018-09-14T01:17:52.745Z,8.37
2018-09-14T01:20:21.038Z,12.10
2018-09-14T01:22:49.274Z,12.33
2018-09-14T01:25:17.511Z,8.43
2018-09-14T01:27:45.736Z,15.90
2018-09-14T01:30:13.972Z,11.53
2018-09-14T01:32:42.205Z,10.03
2018-09-14T01:35:15.859Z,13.17
2018-09-14T01:37:44.076Z,8.47
2018-09-14T01:40:12.311Z,11.10
2018-09-14T01:42:40.587Z,15.33
2018-09-14T01:45:08.875Z,10.27
2018-09-14T01:47:37.151Z,10.97
2018-09-14T01:50:06.448Z,11.70
2018-09-14T01:52:35.051Z,9.93
2018-09-14T01:55:03.307Z,9.37
2018-09-14T01:57:31.522Z,10.57
2018-09-14T01:59:59.776Z,12.20
2018-09-14T02:02:27.996Z,12.23
2018-09-14T02:04:56.199Z,11.80
2018-09-14T02:07:24.693Z,7.67
2018-09-14T02:09:52.894Z,11.27
2018-09-14T02:12:21.141Z,9.13
2018-09-14T02:17:23.876Z,11.73
2018-09-14T02:19:52.096Z,10.40
2018-09-14T02:22:20.349Z,10.93
2018-09-14T02:24:48.727Z,12.50
2018-09-14T02:27:16.963Z,12.47
2018-09-14T02:29:45.194Z,14.90
2018-09-14T02:32:13.424Z,11.50
2018-09-14T02:34:41.668Z,10.88
2018-09-14T02:37:09.892Z,15.20
2018-09-14T02:39:38.133Z,11.93
2018-09-14T02:42:06.573Z,9.87
2018-09-14T02:44:34.769Z,12.03
2018-09-14T02:47:03.227Z,9.80
2018-09-14T02:49:31.498Z,11.57
2018-09-14T02:51:59.755Z,11.87
2018-09-14T02:54:28.043Z,11.17
2018-09-14T02:56:56.283Z,9.93
2018-09-14T02:59:24.511Z,14.73
2018-09-14T03:01:52.960Z,11.85
2018-09-14T03:04:21.165Z,10.33
2018-09-14T03:06:49.409Z,15.17
2018-09-14T03:09:18.395Z,11.83
2018-09-14T03:11:46.644Z,12.70
2018-09-14T03:14:14.874Z,13.37
2018-09-14T03:16:43.109Z,15.90
2018-09-14T03:19:11.328Z,11.17
2018-09-14T03:21:39.576Z,13.87
2018-09-14T03:24:08.003Z,15.30
2018-09-14T03:26:36.275Z,15.97
2018-09-14T03:29:04.492Z,18.77
2018-09-14T03:31:32.723Z,15.67
2018-09-14T03:34:00.990Z,13.37
2018-09-14T03:36:29.304Z,15.50
2018-09-14T03:38:57.552Z,14.73
2018-09-14T03:41:25.839Z,14.90
2018-09-14T03:43:54.084Z,15.47
2018-09-14T03:46:22.308Z,16.07
2018-09-14T03:48:50.552Z,14.83
2018-09-14T03:51:19.146Z,15.40
2018-09-14T03:53:47.382Z,16.37
2018-09-14T03:56:15.640Z,13.17
2018-09-14T03:58:43.872Z,16.90
2018-09-14T04:01:12.076Z,14.97
2018-09-14T04:03:40.325Z,15.87
2018-09-14T04:06:08.556Z,17.00
2018-09-14T04:08:36.786Z,14.90
2018-09-14T04:11:05.007Z,15.50
2018-09-14T04:13:33.243Z,15.50
2018-09-14T04:16:01.889Z,13.57
2018-09-14T04:18:30.123Z,14.17
2018-09-14T04:20:58.348Z,15.30
2018-09-14T04:23:26.632Z,12.30
2018-09-14T04:25:54.807Z,13.17
2018-09-14T04:28:23.044Z,11.93
2018-09-14T04:30:51.349Z,17.03
2018-09-14T04:33:20.239Z,12.27
2018-09-14T04:35:48.480Z,15.53
2018-09-14T04:38:16.839Z,17.07
2018-09-14T04:40:45.001Z,14.93
2018-09-14T04:43:13.248Z,17.87
2018-09-14T04:45:41.510Z,14.83
2018-09-14T04:48:09.752Z,12.10
2018-09-14T04:50:37.958Z,12.57
2018-09-14T04:53:06.206Z,13.80
2018-09-14T04:55:34.455Z,17.20
2018-09-14T04:58:02.704Z,14.80
2018-09-14T05:00:30.941Z,14.37
2018-09-14T05:02:59.194Z,15.10
2018-09-14T05:05:27.435Z,13.00
2018-09-14T05:07:55.737Z,17.43
2018-09-14T05:10:23.976Z,14.77
2018-09-14T05:12:52.200Z,17.57
2018-09-14T05:15:20.412Z,13.87
2018-09-14T05:17:48.781Z,12.83
2018-09-14T05:20:17.007Z,14.87
2018-09-14T05:22:45.285Z,15.53
2018-09-14T05:25:13.520Z,12.93
2018-09-14T05:27:41.735Z,16.30
2018-09-14T05:30:09.958Z,11.80
2018-09-14T05:32:38.220Z,16.30
2018-09-14T05:35:06.513Z,12.27
2018-09-14T05:37:34.780Z,10.97
2018-09-14T05:40:03.037Z,13.40
2018-09-14T05:42:31.300Z,13.53
2018-09-14T05:44:59.520Z,19.80
2018-09-14T05:47:27.752Z,14.83
2018-09-14T05:49:56.026Z,12.63
2018-09-14T05:52:24.280Z,10.90
2018-09-14T05:54:52.511Z,15.90
2018-09-14T05:57:20.711Z,9.70
2018-09-14T05:59:48.972Z,12.83
2018-09-14T06:02:17.205Z,11.77
2018-09-14T06:04:45.460Z,13.23
2018-09-14T06:07:13.646Z,12.60
2018-09-14T06:09:41.872Z,8.67
2018-09-14T06:12:10.065Z,8.80
2018-09-14T06:14:38.316Z,8.90
2018-09-14T06:17:06.780Z,7.80
2018-09-14T06:19:34.950Z,9.23
2018-09-14T06:22:03.168Z,5.60
2018-09-14T06:24:31.672Z,5.60
2018-09-14T06:26:59.913Z,7.12
2018-09-14T06:29:28.176Z,5.25
2018-09-14T06:31:56.389Z,6.70
2018-09-14T06:34:24.628Z,5.78
2018-09-14T06:36:52.856Z,6.12
2018-09-14T06:39:21.101Z,7.03
2018-09-14T06:41:49.324Z,5.10
2018-09-14T06:44:17.556Z,5.40
2018-09-14T06:46:45.776Z,6.37
2018-09-14T06:49:14.063Z,7.58
2018-09-14T06:51:42.304Z,5.78
2018-09-14T06:54:10.555Z,4.83
2018-09-14T06:56:38.748Z,9.65
2018-09-14T06:59:06.992Z,6.60
2018-09-14T07:01:35.217Z,7.08
2018-09-14T07:04:03.515Z,8.95
2018-09-14T07:06:31.810Z,7.50
2018-09-14T07:09:00.020Z,4.75
2018-09-14T07:11:28.274Z,6.65
2018-09-14T07:13:56.552Z,6.85
2018-09-14T07:16:24.783Z,5.62
2018-09-14T07:18:53.053Z,6.83
2018-09-14T07:21:21.295Z,8.18
2018-09-14T07:23:49.531Z,5.87
2018-09-14T07:26:17.766Z,6.90
2018-09-14T07:28:46.127Z,6.35
2018-09-14T07:31:14.354Z,8.25
2018-09-14T07:33:42.673Z,6.35
2018-09-14T07:36:10.959Z,7.47
2018-09-14T07:38:39.267Z,8.28
2018-09-14T07:41:07.628Z,6.53
2018-09-14T07:43:35.897Z,6.85
2018-09-14T07:46:04.136Z,3.87
2018-09-14T07:48:32.379Z,5.33
2018-09-14T07:51:00.612Z,3.42
2018-09-14T07:53:28.820Z,5.12
2018-09-14T07:55:57.023Z,7.33
2018-09-14T07:58:25.256Z,5.12
2018-09-14T08:00:53.508Z,5.10
2018-09-14T08:03:21.744Z,5.97
2018-09-14T08:05:49.962Z,6.28
2018-09-14T08:08:18.220Z,5.37
2018-09-14T08:10:46.513Z,3.67
2018-09-14T08:13:14.744Z,4.70
2018-09-14T08:15:43.008Z,4.08
2018-09-14T08:18:11.433Z,4.22
2018-09-14T08:20:39.676Z,5.58
2018-09-14T08:23:07.895Z,3.30
2018-09-14T08:25:36.326Z,4.80
2018-09-14T08:28:04.572Z,4.60
2018-09-14T08:30:32.895Z,5.33
2018-09-14T08:33:01.165Z,3.90
2018-09-14T08:35:29.384Z,5.20
2018-09-14T08:37:57.604Z,4.23
2018-09-14T08:40:25.837Z,3.58
2018-09-14T08:42:54.032Z,3.85
2018-09-14T08:45:22.236Z,2.95
2018-09-14T08:47:50.485Z,4.05
2018-09-14T08:50:18.740Z,3.62
2018-09-14T08:52:46.954Z,4.50
2018-09-14T08:55:15.200Z,4.58
2018-09-14T08:57:43.461Z,4.37
2018-09-14T09:00:11.956Z,5.75
2018-09-14T09:02:40.171Z,3.17
2018-09-14T09:05:08.412Z,4.20
2018-09-14T09:07:36.630Z,2.98
2018-09-14T09:10:04.992Z,4.53
2018-09-14T09:12:33.211Z,3.37
2018-09-14T09:15:01.483Z,4.05
2018-09-14T09:17:29.725Z,3.33
2018-09-14T09:19:57.952Z,3.30
2018-09-14T09:22:26.167Z,3.98
2018-09-14T09:24:54.415Z,2.65
2018-09-14T09:27:22.633Z,3.72
2018-09-14T09:29:50.843Z,4.17
2018-09-14T09:32:19.116Z,4.80
2018-09-14T09:34:47.388Z,4.30
2018-09-14T09:37:15.623Z,3.62
2018-09-14T09:39:43.883Z,3.98
2018-09-14T09:42:12.700Z,3.67
2018-09-14T09:44:40.928Z,4.37
2018-09-14T09:47:09.155Z,2.95
2018-09-14T09:49:37.402Z,3.98
2018-09-14T09:52:05.811Z,5.78
2018-09-14T09:54:34.202Z,3.15
2018-09-14T09:57:02.428Z,3.80
2018-09-14T09:59:30.729Z,1.85
2018-09-14T10:03:03.111Z,3.05
2018-09-14T10:05:36.771Z,4.72
2018-09-14T10:08:05.012Z,2.33
2018-09-14T10:10:33.992Z,3.37
2018-09-14T10:13:02.220Z,2.22
2018-09-14T10:15:30.427Z,3.45
2018-09-14T10:17:58.696Z,3.20
2018-09-14T10:20:26.973Z,3.40
2018-09-14T10:22:55.197Z,3.37
2018-09-14T10:25:23.425Z,3.20
2018-09-14T10:27:51.667Z,5.97
2018-09-14T10:30:19.900Z,3.40
2018-09-14T10:32:48.145Z,3.50
2018-09-14T10:35:16.365Z,3.77
2018-09-14T10:37:44.598Z,1.82
2018-09-14T10:40:12.868Z,3.27
2018-09-14T10:42:41.152Z,3.77
2018-09-14T10:45:09.361Z,2.65
2018-09-14T10:47:37.576Z,2.35
2018-09-14T10:50:05.923Z,5.83
2018-09-14T10:52:34.607Z,2.65
2018-09-14T10:55:02.961Z,2.52
2018-09-14T10:57:31.184Z,2.37
2018-09-14T10:59:59.416Z,2.42
2018-09-14T11:02:27.666Z,3.35
2018-09-14T11:04:55.915Z,2.12
2018-09-14T11:07:24.144Z,3.12
2018-09-14T11:09:52.389Z,4.42
2018-09-14T11:12:20.594Z,5.03
2018-09-14T11:14:48.882Z,2.02
2018-09-14T11:17:17.131Z,2.72
2018-09-14T11:19:45.401Z,4.33
2018-09-14T11:22:13.712Z,2.17
2018-09-14T11:24:42.212Z,3.20
2018-09-14T11:27:10.396Z,45.38
2018-09-14T11:29:38.620Z,3.25
2018-09-14T11:32:06.869Z,3.40
2018-09-14T11:34:35.096Z,2.72
2018-09-14T11:37:03.347Z,3.55
2018-09-14T11:39:31.586Z,3.33
2018-09-14T11:41:59.859Z,2.83
2018-09-14T11:44:28.186Z,22.60
2018-09-14T11:46:56.420Z,3.60
2018-09-14T11:49:24.687Z,3.62
2018-09-14T11:51:52.955Z,9.85
2018-09-14T11:54:21.357Z,5.08
2018-09-14T11:56:49.468Z,3.27
2018-09-14T11:59:17.736Z,3.98
2018-09-14T12:01:46.073Z,4.33
2018-09-14T12:04:14.373Z,3.20
2018-09-14T12:06:42.548Z,4.05
2018-09-14T12:09:11.969Z,4.37
2018-09-14T12:11:40.747Z,4.17
2018-09-14T12:14:09.109Z,8.23
2018-09-14T12:16:37.396Z,3.85
2018-09-14T12:19:05.664Z,4.05
2018-09-14T12:21:33.928Z,4.58
2018-09-14T12:24:02.151Z,4.75
2018-09-14T12:26:30.386Z,5.55
2018-09-14T12:28:58.604Z,5.80
2018-09-14T12:31:26.850Z,5.28
2018-09-14T12:33:55.088Z,4.85
2018-09-14T12:36:23.321Z,4.53
2018-09-14T12:38:51.564Z,5.58
2018-09-14T12:41:19.826Z,4.95
2018-09-14T12:43:48.036Z,5.33
2018-09-14T12:46:16.300Z,5.20
2018-09-14T12:48:44.555Z,8.53
2018-09-14T12:51:12.811Z,7.90
2018-09-14T12:53:41.056Z,9.43
2018-09-14T12:56:09.326Z,6.13
2018-09-14T12:58:37.592Z,5.87
2018-09-14T13:01:06.025Z,5.17
2018-09-14T13:03:34.460Z,4.62
2018-09-14T13:06:02.680Z,6.70
2018-09-14T13:08:30.892Z,4.87
2018-09-14T13:10:59.103Z,5.55
2018-09-14T13:13:27.348Z,5.47
2018-09-14T13:15:56.245Z,4.25
2018-09-14T13:18:24.489Z,5.87
2018-09-14T13:20:52.728Z,5.30
2018-09-14T13:23:20.932Z,5.28
2018-09-14T13:25:49.252Z,3.80
2018-09-14T13:28:17.477Z,3.65
2018-09-14T13:30:45.683Z,5.00
2018-09-14T13:33:13.917Z,2.70
2018-09-14T13:35:42.119Z,6.45
2018-09-14T13:38:10.363Z,5.25
2018-09-14T13:40:38.657Z,6.22
2018-09-14T13:43:06.920Z,8.95
2018-09-14T13:45:35.381Z,5.55
2018-09-14T13:48:04.408Z,5.25
2018-09-14T13:50:32.660Z,5.50
2018-09-14T13:53:00.937Z,4.73
2018-09-14T13:55:29.172Z,5.62
2018-09-14T13:57:58.080Z,4.33
2018-09-14T14:00:26.324Z,6.10
2018-09-14T14:02:54.593Z,4.95
2018-09-14T14:05:22.812Z,3.72
2018-09-14T14:07:51.068Z,5.83
2018-09-14T14:10:19.349Z,6.90
2018-09-14T14:12:47.634Z,7.42
2018-09-14T14:15:16.101Z,4.62
2018-09-14T14:17:44.608Z,6.53
2018-09-14T14:20:12.920Z,6.78
2018-09-14T14:22:41.147Z,3.37
2018-09-14T14:25:09.403Z,6.03
2018-09-14T14:27:37.667Z,6.42
2018-09-14T14:30:05.909Z,5.03
2018-09-14T14:32:34.164Z,4.78
2018-09-14T14:35:02.413Z,4.22
2018-09-14T14:37:30.691Z,5.67
2018-09-14T14:39:59.114Z,4.92
2018-09-14T14:42:27.349Z,5.78
2018-09-14T14:44:56.089Z,6.83
2018-09-14T14:47:24.323Z,5.75
2018-09-14T14:49:52.601Z,6.17
2018-09-14T14:52:20.881Z,6.60
2018-09-14T14:54:49.147Z,4.87
2018-09-14T14:57:17.425Z,6.15
2018-09-14T14:59:45.860Z,6.78
2018-09-14T15:02:14.160Z,4.08
2018-09-14T15:04:42.383Z,8.50
2018-09-14T15:07:10.671Z,3.75
2018-09-14T15:09:38.931Z,4.60
2018-09-14T15:12:07.224Z,5.45
2018-09-14T15:14:35.490Z,5.90
2018-09-14T15:17:03.810Z,3.12
2018-09-14T15:19:32.094Z,5.12
2018-09-14T15:22:00.344Z,4.05
2018-09-14T15:24:28.616Z,6.72
2018-09-14T15:26:56.846Z,5.72
2018-09-14T15:29:25.153Z,4.28
2018-09-14T15:31:53.403Z,4.47
2018-09-14T15:34:21.643Z,4.45
2018-09-14T15:36:49.908Z,4.92
2018-09-14T15:39:18.159Z,6.12
2018-09-14T15:41:46.432Z,4.17
2018-09-14T15:44:14.680Z,4.75
2018-09-14T15:46:42.961Z,3.10
2018-09-14T15:49:11.298Z,5.22
2018-09-14T15:51:39.569Z,4.20
2018-09-14T15:54:08.142Z,2.92
2018-09-14T15:56:36.397Z,6.42
2018-09-14T15:59:04.692Z,4.85
2018-09-14T16:01:32.905Z,5.07
2018-09-14T16:04:01.212Z,3.13
2018-09-14T16:06:29.537Z,4.47
2018-09-14T16:08:57.785Z,3.72
2018-09-14T16:11:26.048Z,5.70
2018-09-14T16:13:54.330Z,6.97
2018-09-14T16:16:22.571Z,5.15
2018-09-14T16:18:51.289Z,4.75
2018-09-14T16:21:19.925Z,4.40
2018-09-14T16:23:48.254Z,5.42
2018-09-14T16:26:16.836Z,4.50
2018-09-14T16:28:45.163Z,5.42
2018-09-14T16:31:13.610Z,3.95
2018-09-14T16:33:41.926Z,4.40
2018-09-14T16:36:10.186Z,3.12
2018-09-14T16:38:38.432Z,5.75
2018-09-14T16:41:06.680Z,6.15
2018-09-14T16:43:35.001Z,5.85
2018-09-14T16:46:03.945Z,6.28
2018-09-14T16:48:32.227Z,4.70
2018-09-14T16:51:00.465Z,6.33
2018-09-14T16:53:28.751Z,7.22
2018-09-14T16:55:57.003Z,6.20
2018-09-14T16:58:25.252Z,4.40
2018-09-14T17:00:53.519Z,4.70
2018-09-14T17:03:21.767Z,6.08
2018-09-14T17:05:50.064Z,5.40
2018-09-14T17:08:18.380Z,4.10
2018-09-14T17:10:46.700Z,5.60
2018-09-14T17:13:15.029Z,5.33
2018-09-14T17:15:43.319Z,4.45
2018-09-14T17:18:11.578Z,5.15
2018-09-14T17:20:39.852Z,4.55
2018-09-14T17:23:08.683Z,6.60
2018-09-14T17:25:37.047Z,7.58
2018-09-14T17:28:05.476Z,4.03
2018-09-14T17:30:33.736Z,5.67
2018-09-14T17:33:01.994Z,4.15
2018-09-14T17:35:32.642Z,8.25
2018-09-14T17:38:07.685Z,5.97
2018-09-14T17:40:35.991Z,6.47
2018-09-14T17:43:04.257Z,6.43
2018-09-14T17:45:32.526Z,4.97
2018-09-14T17:48:01.134Z,4.50
2018-09-14T17:50:29.402Z,4.25
2018-09-14T17:52:57.923Z,4.58
2018-09-14T17:55:26.216Z,7.37
2018-09-14T17:57:54.573Z,5.53
2018-09-14T18:00:22.873Z,4.55
2018-09-14T18:02:51.232Z,6.45
2018-09-14T18:05:19.487Z,5.53
2018-09-14T18:07:47.790Z,6.30
2018-09-14T18:10:16.304Z,5.08
2018-09-14T18:12:44.591Z,4.55
2018-09-14T18:15:12.916Z,4.37
2018-09-14T18:17:41.674Z,6.62
2018-09-14T18:20:10.111Z,6.60
2018-09-14T18:22:38.458Z,3.77
2018-09-14T18:25:06.916Z,5.23
2018-09-14T18:27:36.151Z,6.35
2018-09-14T18:30:05.348Z,3.65
2018-09-14T18:32:35.116Z,5.85
2018-09-14T18:35:04.105Z,5.00
2018-09-14T18:37:32.691Z,4.97
2018-09-14T18:40:01.088Z,6.53
2018-09-14T18:42:29.778Z,3.05
2018-09-14T18:44:58.574Z,4.87
2018-09-14T18:47:27.743Z,5.33
2018-09-14T18:49:56.081Z,5.33
2018-09-14T18:52:24.801Z,5.17
2018-09-14T18:54:53.670Z,5.03
2018-09-14T18:57:22.157Z,5.87
2018-09-14T18:59:50.492Z,5.35
2018-09-14T19:02:18.800Z,4.15
2018-09-14T19:04:47.558Z,4.66
2018-09-14T19:07:15.919Z,5.10
2018-09-14T19:09:44.721Z,3.73
2018-09-14T19:12:13.208Z,4.85
2018-09-14T19:14:41.903Z,4.78
2018-09-14T19:17:10.805Z,4.22
2018-09-14T19:19:40.023Z,5.33
2018-09-14T19:22:09.220Z,8.70
2018-09-14T19:24:38.085Z,4.42
2018-09-14T19:27:07.535Z,6.03
2018-09-14T19:29:35.925Z,6.87
2018-09-14T19:32:04.723Z,6.55
2018-09-14T19:34:33.216Z,4.80
2018-09-14T19:37:01.601Z,8.08
2018-09-14T19:39:29.915Z,8.50
2018-09-14T19:41:59.824Z,9.13
2018-09-14T19:44:28.211Z,5.97
2018-09-14T19:47:03.295Z,8.13
2018-09-14T19:49:32.245Z,8.00
2018-09-14T19:52:00.692Z,7.75
2018-09-14T19:54:29.433Z,9.13
2018-09-14T19:56:58.113Z,6.87
2018-09-14T19:59:26.917Z,9.30
2018-09-14T20:01:55.313Z,6.55
2018-09-14T20:04:24.216Z,9.93
2018-09-14T20:06:53.054Z,9.80
2018-09-14T20:09:21.415Z,8.08
2018-09-14T20:11:49.781Z,8.93
2018-09-14T20:14:18.386Z,8.78
2018-09-14T20:16:46.769Z,12.23
2018-09-14T20:19:15.370Z,12.30
2018-09-14T20:21:44.680Z,13.18
2018-09-14T20:24:12.975Z,11.12
2018-09-14T20:26:42.069Z,8.88
2018-09-14T20:29:10.461Z,8.80
2018-09-14T20:31:39.041Z,9.80
2018-09-14T20:34:07.748Z,12.78
2018-09-14T20:36:36.108Z,13.68
2018-09-14T20:39:06.579Z,9.13
2018-09-14T20:41:35.647Z,10.00
2018-09-14T20:44:04.171Z,10.82
2018-09-14T20:46:32.435Z,9.24
2018-09-14T20:49:00.732Z,7.58
2018-09-14T20:51:29.106Z,7.60
2018-09-14T20:53:57.377Z,7.42
2018-09-14T20:56:25.717Z,6.33
2018-09-14T20:58:53.978Z,7.28
2018-09-14T21:01:22.776Z,7.13
2018-09-14T21:03:51.099Z,7.62
2018-09-14T21:11:12.812Z,7.30
2018-09-14T21:13:41.131Z,6.03
2018-09-14T21:16:09.423Z,11.38
2018-09-14T21:18:37.700Z,9.23
2018-09-14T21:21:05.977Z,9.78
2018-09-14T21:23:34.281Z,5.10
2018-09-14T21:26:02.577Z,10.85
2018-09-14T21:28:30.824Z,7.17
2018-09-14T21:30:59.076Z,7.65
2018-09-14T21:33:27.303Z,8.50
2018-09-14T21:35:55.579Z,6.85
2018-09-14T21:38:23.816Z,7.10
2018-09-14T21:40:52.097Z,6.70
2018-09-14T21:43:20.336Z,8.30
2018-09-14T21:45:48.613Z,9.13
2018-09-14T21:48:16.947Z,7.30
2018-09-14T21:50:45.256Z,6.10
2018-09-14T21:53:13.511Z,6.63
2018-09-14T21:55:41.734Z,7.25
2018-09-14T21:58:09.973Z,9.45
2018-09-14T22:00:43.697Z,7.80
2018-09-14T22:03:11.928Z,9.40
2018-09-14T22:05:40.187Z,7.87
2018-09-14T22:08:08.423Z,7.75
2018-09-14T22:10:36.675Z,7.45
2018-09-14T22:13:04.896Z,6.22
2018-09-14T22:15:33.162Z,6.22
2018-09-14T22:18:01.375Z,5.92
2018-09-14T22:20:29.613Z,5.57
2018-09-14T22:22:57.859Z,10.37
2018-09-14T22:25:26.076Z,5.67
2018-09-14T22:27:54.360Z,6.55
2018-09-14T22:30:22.619Z,5.55
2018-09-14T22:32:50.828Z,6.47
2018-09-14T22:35:19.096Z,7.47
2018-09-14T22:37:47.361Z,6.53
2018-09-14T22:40:15.589Z,6.25
2018-09-14T22:42:43.795Z,7.50
2018-09-14T22:45:12.036Z,7.82
2018-09-14T22:47:40.287Z,5.72
2018-09-14T22:50:08.552Z,7.03
2018-09-14T22:52:36.826Z,8.13
2018-09-14T22:55:05.253Z,7.70
2018-09-14T22:57:33.516Z,6.45
2018-09-14T23:00:01.778Z,9.63
2018-09-14T23:02:30.008Z,6.28
2018-09-14T23:04:58.247Z,8.43
2018-09-14T23:07:26.539Z,8.53
2018-09-14T23:09:54.774Z,9.43
2018-09-14T23:12:23.730Z,8.58
2018-09-14T23:14:51.938Z,8.35
2018-09-14T23:17:20.381Z,7.60
2018-09-14T23:19:48.615Z,8.83
2018-09-14T23:22:16.839Z,9.93
2018-09-14T23:24:45.059Z,9.18
2018-09-14T23:27:13.307Z,8.35
2018-09-14T23:29:41.531Z,10.23
2018-09-14T23:32:09.742Z,9.78
2018-09-14T23:34:37.960Z,8.25
2018-09-14T23:37:06.263Z,8.03
2018-09-14T23:39:34.512Z,10.38
2018-09-14T23:42:02.766Z,11.93
2018-09-14T23:44:30.968Z,8.03
2018-09-14T23:46:59.462Z,11.73
2018-09-14T23:49:27.660Z,9.55
2018-09-14T23:51:55.925Z,11.53
2018-09-14T23:54:24.449Z,8.63
2018-09-14T23:56:52.708Z,8.90
2018-09-14T23:59:20.937Z,10.90
